Time,TemperatureF,DewpointF,PressureIn,WindDirection,WindDirectionDegrees,WindSpeedMPH,WindSpeedGustMPH,Humidity,HourlyPrecipIn,Conditions,Clouds,dailyrainin,SoftwareType,DateUTC
2013-01-08 00:22:00,52.0,45.0,30.11,North,0,0.0,-999.0,77,0.00,,,-99.99,,2013-01-08 08:22:00,
2013-01-08 00:32:00,52.0,45.0,30.11,North,0,0.0,-999.0,77,0.00,,,-99.99,,2013-01-08 08:32:00,
2013-01-08 00:42:00,52.0,45.0,30.11,North,0,0.0,-999.0,77,0.00,,,-99.99,,2013-01-08 08:42:00,
2013-01-08 00:51:00,51.0,44.0,30.11,North,0,0.0,-999.0,76,0.00,,,-99.99,,2013-01-08 08:51:00,
2013-01-08 01:22:00,51.0,44.0,30.11,North,0,0.0,-999.0,76,0.00,,,-99.99,,2013-01-08 09:22:00,
2013-01-08 01:32:00,51.0,44.0,30.11,North,0,0.0,-999.0,76,0.00,,,-99.99,,2013-01-08 09:32:00,
2013-01-08 01:42:00,51.0,44.0,30.11,North,0,0.0,-999.0,76,0.00,,,-99.99,,2013-01-08 09:42:00,
2013-01-08 01:51:00,51.0,44.0,30.11,North,0,0.0,-999.0,78,0.00,,,-99.99,,2013-01-08 09:51:00,
2013-01-08 02:22:00,51.0,44.0,30.11,North,0,0.0,-999.0,78,0.00,,,-99.99,,2013-01-08 10:22:00,
2013-01-08 02:32:00,51.0,44.0,30.11,North,0,0.0,-999.0,78,0.00,,,-99.99,,2013-01-08 10:32:00,
2013-01-08 02:42:00,51.0,44.0,30.11,North,0,0.0,-999.0,78,0.00,,,-99.99,,2013-01-08 10:42:00,
2013-01-08 02:51:00,50.0,41.0,30.11,North,0,0.0,-999.0,71,0.00,,,-99.99,,2013-01-08 10:51:00,
2013-01-08 03:22:00,50.0,41.0,30.11,North,0,0.0,-999.0,71,0.00,,,-99.99,,2013-01-08 11:22:00,
2013-01-08 03:32:00,50.0,41.0,30.11,North,0,0.0,-999.0,71,0.00,,,-99.99,,2013-01-08 11:32:00,
2013-01-08 03:42:00,50.0,41.0,30.11,North,0,0.0,-999.0,71,0.00,,,-99.99,,2013-01-08 11:42:00,
2013-01-08 03:51:00,49.0,40.0,30.09,North,0,0.0,-999.0,70,0.00,,,-99.99,,2013-01-08 11:51:00,
2013-01-08 04:22:00,49.0,40.0,30.09,North,0,0.0,-999.0,70,0.00,,,-99.99,,2013-01-08 12:22:00,
2013-01-08 04:32:00,49.0,40.0,30.09,North,0,0.0,-999.0,70,0.00,,,-99.99,,2013-01-08 12:32:00,
2013-01-08 04:42:00,49.0,40.0,30.09,North,0,0.0,-999.0,70,0.00,,,-99.99,,2013-01-08 12:42:00,
2013-01-08 04:51:00,49.0,40.0,30.10,North,0,0.0,-999.0,72,0.00,,,-99.99,,2013-01-08 12:51:00,
2013-01-08 05:22:00,49.0,40.0,30.10,North,0,0.0,-999.0,72,0.00,,,-99.99,,2013-01-08 13:22:00,
2013-01-08 05:32:00,49.0,40.0,30.10,North,0,0.0,-999.0,72,0.00,,,-99.99,,2013-01-08 13:32:00,
2013-01-08 05:42:00,49.0,40.0,30.10,North,0,0.0,-999.0,72,0.00,,,-99.99,,2013-01-08 13:42:00,
2013-01-08 05:51:00,48.0,39.0,30.11,North,0,0.0,-999.0,70,0.00,,,-99.99,,2013-01-08 13:51:00,
2013-01-08 06:23:00,48.0,39.0,30.11,North,0,0.0,-999.0,70,0.00,,,-99.99,,2013-01-08 14:23:00,
2013-01-08 06:33:00,48.0,39.0,30.11,North,0,0.0,-999.0,70,0.00,,,-99.99,,2013-01-08 14:33:00,
2013-01-08 06:42:00,48.0,39.0,30.11,North,0,0.0,-999.0,70,0.00,,,-99.99,,2013-01-08 14:42:00,
2013-01-08 06:51:00,49.0,40.0,30.14,North,0,0.0,-999.0,70,0.00,,,-99.99,,2013-01-08 14:51:00,
2013-01-08 07:22:00,49.0,40.0,30.14,North,0,0.0,-999.0,70,0.00,,,-99.99,,2013-01-08 15:22:00,
2013-01-08 07:33:00,49.0,40.0,30.14,North,0,0.0,-999.0,70,0.00,,,-99.99,,2013-01-08 15:33:00,
2013-01-08 07:42:00,49.0,40.0,30.14,North,0,0.0,-999.0,70,0.00,,,-99.99,,2013-01-08 15:42:00,
2013-01-08 07:51:00,48.0,39.0,30.16,North,0,0.0,-999.0,72,0.00,,,-99.99,,2013-01-08 15:51:00,
2013-01-08 08:22:00,48.0,39.0,30.16,North,0,0.0,-999.0,72,0.00,,,-99.99,,2013-01-08 16:22:00,
2013-01-08 08:33:00,48.0,39.0,30.16,North,0,0.0,-999.0,72,0.00,,,-99.99,,2013-01-08 16:33:00,
2013-01-08 08:42:00,48.0,39.0,30.16,North,0,0.0,-999.0,72,0.00,,,-99.99,,2013-01-08 16:42:00,
2013-01-08 08:51:00,52.0,41.0,30.18,North,0,0.0,-999.0,66,0.00,,,-99.99,,2013-01-08 16:51:00,
2013-01-08 09:23:00,52.0,41.0,30.18,North,0,0.0,-999.0,66,0.00,,,-99.99,,2013-01-08 17:23:00,
2013-01-08 09:33:00,52.0,41.0,30.18,North,0,0.0,-999.0,66,0.00,,,-99.99,,2013-01-08 17:33:00,
2013-01-08 09:43:00,52.0,41.0,30.18,North,0,0.0,-999.0,66,0.00,,,-99.99,,2013-01-08 17:43:00,
2013-01-08 09:51:00,55.0,40.0,30.19,North,0,0.0,-999.0,57,0.00,,,-99.99,,2013-01-08 17:51:00,
2013-01-08 10:23:00,55.0,40.0,30.19,North,0,0.0,-999.0,57,0.00,,,-99.99,,2013-01-08 18:23:00,
2013-01-08 10:33:00,55.0,40.0,30.19,North,0,0.0,-999.0,57,0.00,,,-99.99,,2013-01-08 18:33:00,
2013-01-08 10:43:00,55.0,40.0,30.19,North,0,0.0,-999.0,57,0.00,,,-99.99,,2013-01-08 18:43:00,
2013-01-08 10:51:00,59.0,43.0,30.17,North,0,0.0,-999.0,55,0.00,,,-99.99,,2013-01-08 18:51:00,
2013-01-08 11:22:00,59.0,43.0,30.17,North,0,0.0,-999.0,55,0.00,,,-99.99,,2013-01-08 19:22:00,
2013-01-08 11:32:00,59.0,43.0,30.17,North,0,0.0,-999.0,55,0.00,,,-99.99,,2013-01-08 19:32:00,
2013-01-08 11:42:00,59.0,43.0,30.17,North,0,0.0,-999.0,55,0.00,,,-99.99,,2013-01-08 19:42:00,
2013-01-08 11:51:00,61.0,41.0,30.14,North,0,0.0,-999.0,48,0.00,,,-99.99,,2013-01-08 19:51:00,
2013-01-08 12:22:00,61.0,41.0,30.14,North,0,0.0,-999.0,48,0.00,,,-99.99,,2013-01-08 20:22:00,
2013-01-08 12:33:00,61.0,41.0,30.14,North,0,0.0,-999.0,48,0.00,,,-99.99,,2013-01-08 20:33:00,
2013-01-08 12:43:00,61.0,41.0,30.14,North,0,0.0,-999.0,48,0.00,,,-99.99,,2013-01-08 20:43:00,
2013-01-08 12:51:00,62.0,35.0,30.12,SSW,200,6.0,-999.0,37,0.00,,,-99.99,,2013-01-08 20:51:00,
2013-01-08 13:22:00,62.0,35.0,30.12,SSW,200,6.0,-999.0,37,0.00,,,-99.99,,2013-01-08 21:22:00,
2013-01-08 13:33:00,62.0,35.0,30.12,SSW,200,6.0,-999.0,37,0.00,,,-99.99,,2013-01-08 21:33:00,
2013-01-08 13:43:00,62.0,35.0,30.12,SSW,200,6.0,-999.0,37,0.00,,,-99.99,,2013-01-08 21:43:00,
2013-01-08 13:51:00,65.0,39.0,30.11,North,0,0.0,-999.0,38,0.00,,,-99.99,,2013-01-08 21:51:00,
2013-01-08 14:22:00,65.0,39.0,30.11,North,0,0.0,-999.0,38,0.00,,,-99.99,,2013-01-08 22:22:00,
2013-01-08 14:32:00,65.0,39.0,30.11,North,0,0.0,-999.0,38,0.00,,,-99.99,,2013-01-08 22:32:00,
2013-01-08 14:42:00,65.0,39.0,30.11,North,0,0.0,-999.0,38,0.00,,,-99.99,,2013-01-08 22:42:00,
2013-01-08 14:51:00,63.0,42.0,30.12,West,260,6.0,-999.0,46,0.00,,,-99.99,,2013-01-08 22:51:00,
2013-01-08 15:22:00,63.0,42.0,30.12,West,260,6.0,-999.0,46,0.00,,,-99.99,,2013-01-08 23:22:00,
2013-01-08 15:32:00,63.0,42.0,30.12,West,260,6.0,-999.0,46,0.00,,,-99.99,,2013-01-08 23:32:00,
2013-01-08 15:43:00,63.0,42.0,30.12,West,260,6.0,-999.0,46,0.00,,,-99.99,,2013-01-08 23:43:00,
2013-01-08 15:51:00,61.0,52.0,30.13,NW,320,6.0,-999.0,71,0.00,,,-99.99,,2013-01-08 23:51:00,
2013-01-08 16:22:00,61.0,52.0,30.13,NW,320,6.0,-999.0,71,0.00,,,-99.99,,2013-01-09 00:22:00,
2013-01-08 16:32:00,61.0,52.0,30.13,NW,320,6.0,-999.0,71,0.00,,,-99.99,,2013-01-09 00:32:00,
2013-01-08 16:42:00,61.0,52.0,30.13,NW,320,6.0,-999.0,71,0.00,,,-99.99,,2013-01-09 00:42:00,
2013-01-08 16:51:00,59.0,53.0,30.14,NW,320,8.0,-999.0,81,0.00,,,-99.99,,2013-01-09 00:51:00,
2013-01-08 17:22:00,59.0,53.0,30.14,NW,320,8.0,-999.0,81,0.00,,,-99.99,,2013-01-09 01:22:00,
2013-01-08 17:32:00,59.0,53.0,30.14,NW,320,8.0,-999.0,81,0.00,,,-99.99,,2013-01-09 01:32:00,
2013-01-08 17:42:00,59.0,53.0,30.14,NW,320,8.0,-999.0,81,0.00,,,-99.99,,2013-01-09 01:42:00,
2013-01-08 17:51:00,57.0,53.0,30.16,NW,310,5.0,-999.0,87,0.00,,,-99.99,,2013-01-09 01:51:00,
2013-01-08 18:22:00,57.0,53.0,30.16,NW,310,5.0,-999.0,87,0.00,,,-99.99,,2013-01-09 02:22:00,
2013-01-08 18:32:00,57.0,53.0,30.16,NW,310,5.0,-999.0,87,0.00,,,-99.99,,2013-01-09 02:32:00,
2013-01-08 18:42:00,57.0,53.0,30.16,NW,310,5.0,-999.0,87,0.00,,,-99.99,,2013-01-09 02:42:00,
2013-01-08 18:51:00,57.0,52.0,30.16,North,0,0.0,-999.0,84,0.00,,,-99.99,,2013-01-09 02:51:00,
2013-01-08 19:22:00,57.0,52.0,30.16,North,0,0.0,-999.0,84,0.00,,,-99.99,,2013-01-09 03:22:00,
2013-01-08 19:33:00,57.0,52.0,30.16,North,0,0.0,-999.0,84,0.00,,,-99.99,,2013-01-09 03:33:00,
2013-01-08 19:42:00,57.0,52.0,30.16,North,0,0.0,-999.0,84,0.00,,,-99.99,,2013-01-09 03:42:00,
2013-01-08 19:51:00,57.0,51.0,30.16,North,0,0.0,-999.0,79,0.00,,,-99.99,,2013-01-09 03:51:00,
2013-01-08 20:22:00,57.0,51.0,30.16,North,0,0.0,-999.0,79,0.00,,,-99.99,,2013-01-09 04:22:00,
2013-01-08 20:32:00,57.0,51.0,30.16,North,0,0.0,-999.0,79,0.00,,,-99.99,,2013-01-09 04:32:00,
2013-01-08 20:42:00,57.0,51.0,30.16,North,0,0.0,-999.0,79,0.00,,,-99.99,,2013-01-09 04:42:00,
2013-01-08 20:51:00,56.0,50.0,30.16,North,0,0.0,-999.0,81,0.00,,,-99.99,,2013-01-09 04:51:00,
2013-01-08 21:22:00,56.0,50.0,30.16,North,0,0.0,-999.0,81,0.00,,,-99.99,,2013-01-09 05:22:00,
2013-01-08 21:33:00,56.0,50.0,30.16,North,0,0.0,-999.0,81,0.00,,,-99.99,,2013-01-09 05:33:00,
2013-01-08 21:42:00,56.0,50.0,30.16,North,0,0.0,-999.0,81,0.00,,,-99.99,,2013-01-09 05:42:00,
2013-01-08 21:51:00,56.0,51.0,30.16,North,0,0.0,-999.0,82,0.00,,,-99.99,,2013-01-09 05:51:00,
2013-01-08 22:22:00,56.0,51.0,30.16,North,0,0.0,-999.0,82,0.00,,,-99.99,,2013-01-09 06:22:00,
2013-01-08 22:32:00,56.0,51.0,30.16,North,0,0.0,-999.0,82,0.00,,,-99.99,,2013-01-09 06:32:00,
2013-01-08 22:42:00,56.0,51.0,30.16,North,0,0.0,-999.0,82,0.00,,,-99.99,,2013-01-09 06:42:00,
2013-01-08 22:51:00,56.0,51.0,30.16,North,0,0.0,-999.0,83,0.00,,,-99.99,,2013-01-09 06:51:00,
2013-01-08 23:32:00,56.0,51.0,30.16,North,0,0.0,-999.0,83,0.00,,,-99.99,,2013-01-09 07:32:00,
2013-01-08 23:42:00,56.0,51.0,30.16,North,0,0.0,-999.0,83,0.00,,,-99.99,,2013-01-09 07:42:00,
2013-01-08 23:51:00,53.0,49.0,30.17,North,0,0.0,-999.0,86,0.00,,,-99.99,,2013-01-09 07:51:00,